Kankakee, IL (60901)

12:22 AM CDT on March 30, 2017 (GMT -0500)
Quail hallow | | Change Station

Elev 669 ft 41.16 °N, 87.84 °W | Updated 22 seconds ago

Rain
Rain
44.8 °F
Feels Like 45 °F
N
1.7
Wind Variable Wind from West

Today
High -- | Low -- °F
--% Chance of Precip.
Yesterday
High -- | Low -- °F
Precip. -- in
Pressure 29.92 in
Visibility 5.0 miles
Clouds Overcast 4200 ft
Windchill 45 °F
Dew Point 40 °F
Humidity 82%
Rainfall 0.04 in
Snow Depth Not available.
6:37 AM 7:14 PM
Waxing Crescent, 6% visible
METAR KIKK 300515Z AUTO 08016G20KT 5SM VCTSRA OVC042 07/04 A2992 RMK AO2 LTG DSNT SW THRU NW P0006 T00730035
Pressure 29.92 in
Visibility 5.0 miles
Clouds Overcast 4200 ft
Windchill 45 °F
Dew Point 40 °F
Humidity 82%
Rainfall 0.04 in
Snow Depth Not available.
6:37 AM 7:14 PM
Waxing Crescent, 6% visible
METAR KIKK 300515Z AUTO 08016G20KT 5SM VCTSRA OVC042 07/04 A2992 RMK AO2 LTG DSNT SW THRU NW P0006 T00730035

Get Severe Weather Alerts

Thanks for signing up!

Be on the lookout for a verification email in your inbox.

You'll start receiving the daily forecast at 8 AM.

×

10-Day Weather Forecast

Almanac

Astronomy

Mar. 30, 2017 Rise Set
Actual Time
Civil Twilight
Nautical Twilight
Astronomical Twilight
Moon
Length of Visible Light
Length of Day
Tomorrow will be .
, % of the Moon is Illuminated

Today's Extremes

State Highs State Lows

Community

WunderPhotos

Upload Photos

1,962,540 photos uploaded!

WunderBlog® & News

Nearby

Air Quality

  Air Quality AQ Index Pollutant
Not available.

Snow Depth

Station Depth Elevation

Earthquake Activity

City Distance Mag. Time & Date
Minimum magnitude displayed is 2.5.

Earthquake Activity

City Distance Mag. Time & Date
Minimum magnitude displayed is 2.5.

Coastal Water Temperatures

Place Temperature

Stations

Nearby Weather Stations

Station Location Temp. Windchill Dew Point Humidity Wind Precip. Elev Updated Type
                   

Watches & Warnings

There are currently no watches in effect.